Terminal Aerodrome Forecast
Issued by NWS

Current Version | Previous Version | Graphics & Text | Print | Product List | Glossary On
Versions: 1 2 3 4 5 6 7 8 9 10 11 12 13 14 15 16 17 18 19 20 21
000
FTUS41 KPBZ 302329
TAFMGW
TAF
KMGW 302329Z 0100/0124 18009KT P6SM VCSH OVC060
     FM010100 21008KT P6SM VCSH OVC030
      TEMPO 0101/0104 27014G26KT 3SM SHRA OVC015
     FM010500 25009KT P6SM VCSH BKN030
     FM010800 25010G20KT P6SM SCT080
     FM011400 24010G21KT P6SM BKN020
     FM011800 25011G21KT P6SM BKN035=

USA.gov is the U.S. government's official web portal to all federal, state and local government web resources and services.